Nearby METAR Reports

 

KBFI - Seattle/Boeing, Washington, USA
Distance from station: S 10mi, 16km
Updated: Oct/06/2022 3:53pm
Clear
Clear
 Wind from WNW
Wind: WNW 6 mph , 9 km/h
Temperature: 72°F , 22°C
Dew Point: 55°F , 13°C
Humidity: 57%
Barometer: 30.10 inHg , 1019.3 hPa
Clouds: Clear
Visibility: 9 miles , 14 km
2022/10/06 22:53 KBFI 062253Z 30005KT 9SM CLR 22/13 A3010 RMK AO2 SLP191 T02170133
KRNT - Renton, Washington, USA
Distance from station: SSE 14mi, 23km
Updated: Oct/06/2022 3:53pm
Haze, Clear
Haze, Clear
 Wind from NW
Wind: NW 9 mph , 15 km/h
Temperature: 73°F , 23°C
Dew Point: 55°F , 13°C
Humidity: 53%
Barometer: 30.09 inHg , 1019 hPa
Summary: Haze
Clouds: Clear
Visibility: 6 miles , 10 km
2022/10/06 22:53 KRNT 062253Z 32008KT 6SM HZ CLR 23/13 A3009 RMK AO2 SLP193 T02280133
 
KPAE - Everett, Washington, USA
Distance from station: N 15mi, 25km
Updated: Oct/06/2022 3:53pm
Clear
Clear
 Wind from N
Wind: N 7 mph , 11 km/h
Temperature: 70°F , 21°C
Dew Point: 52°F , 11°C
Humidity: 53%
Barometer: 30.13 inHg , 1020.3 hPa
Clouds: Clear
Visibility: 10 miles , 16 km
2022/10/06 22:53 KPAE 062253Z 35006KT 10SM CLR 21/11 A3013 RMK AO2 SLP200 T02110111
KSEA - Seattle/Metro, Washington, USA
Distance from station: S 17mi, 27km
Updated: Oct/06/2022 3:53pm
Haze, Smoke, Mostly cloudy
Haze, Smoke, Mostly cloudy
 Wind from N
Wind: N 7 mph , 11 km/h
Temperature: 73°F , 23°C
Dew Point: 54°F , 12°C
Humidity: 50%
Barometer: 30.11 inHg , 1019.6 hPa
Summary: Haze, Smoke
Clouds: Mostly cloudy
Visibility: 6 miles , 10 km
Cloud details: Mostly cloudy 25000 ft
2022/10/06 22:53 KSEA 062253Z 35006KT 6SM HZ FU BKN250 23/12 A3011 RMK AO2 SLP201 T02280122
 
KPWT - Bremerton Ntnl, Washington, USA
Distance from station: SW 24mi, 39km
Updated: Oct/06/2022 3:56pm
Clear
Clear
 Wind from E
Wind: E 8 mph , 13 km/h
Temperature: 73°F , 23°C
Dew Point: 57°F , 14°C
Humidity: 57%
Barometer: 30.11 inHg , 1019.6 hPa
Clouds: Clear
Visibility: 10 miles , 16 km
2022/10/06 22:56 KPWT 062256Z AUTO 08007KT 10SM CLR 23/14 A3011 RMK AO2 SLP199 T02330144
KTIW - Tacoma, Washington, USA
Distance from station: SSW 32mi, 52km
Updated: Oct/06/2022 3:53pm
Clear
Clear
 Wind from NNE
Wind: NNE 9 mph , 15 km/h
Temperature: 70°F , 21°C
Dew Point: 54°F , 12°C
Humidity: 57%
Barometer: 30.11 inHg , 1019.6 hPa
Clouds: Clear
Visibility: 7 miles , 11 km
2022/10/06 22:53 KTIW 062253Z 02008KT 7SM CLR 21/12 A3011 RMK AO2 SLP194 T02060122
 
KAWO - Arlington Muni, Washington, USA
Distance from station: N 33mi, 54km
Updated: Oct/06/2022 3:56pm
Clear
Clear
 Wind from varies
Wind: varies 5 mph , 7 km/h
Temperature: 72°F , 22°C
Dew Point: 57°F , 14°C
Humidity: 61%
Barometer: 30.11 inHg , 1019.6 hPa
Clouds: Clear
Visibility: 10 miles , 16 km
2022/10/06 22:56 KAWO 062256Z AUTO VRB04KT 10SM CLR 22/14 A3011 RMK AO2 SLP199 T02220144
KTCM - Tacoma/Mc Chord, Washington, USA
Distance from station: S 41mi, 65km
Updated: Oct/06/2022 3:55pm
Clear
Clear
 Wind from N
Wind: N 8 mph , 13 km/h
Temperature: 72°F , 22°C
Dew Point: 55°F , 13°C
Humidity: 57%
Barometer: 30.10 inHg , 1019.3 hPa
Clouds: Clear
Visibility: 10 miles , 16 km
2022/10/06 22:55 KTCM 062255Z AUTO 01007KT 10SM CLR 22/13 A3010 RMK AO2 SLP196 T02220127 $
 
KPLU - Puyallup/Thun, Washington, USA
Distance from station: S 41mi, 66km
Updated: Oct/06/2022 4:15pm
Clear
Clear
 Wind from calm
Wind: Calm
Temperature: 75°F , 24°C
Dew Point: 55°F , 13°C
Humidity: 50%
Barometer: 30.11 inHg , 1019.6 hPa
Clouds: Clear
Visibility: 9 miles , 14 km
2022/10/06 23:15 KPLU 062315Z AUTO 00000KT 9SM CLR 24/13 A3011 RMK AO2
KGRF - Fort Lewis/Gray, Washington, USA
Distance from station: SSW 45mi, 72km
Updated: Oct/06/2022 3:55pm
Clear
Clear
 Wind from N
Wind: N 9 mph , 15 km/h
Temperature: 72°F , 22°C
Dew Point: 52°F , 11°C
Humidity: 50%
Barometer: 30.08 inHg , 1018.6 hPa
Clouds: Clear
Visibility: 10 miles , 16 km
2022/10/06 22:55 KGRF 062255Z AUTO 01008KT 10SM CLR 22/11 A3008 RMK AO2 SLP189 T02190110 $
 
KNUW - Whidbey Is. Nas, Washington, USA
Distance from station: NNW 48mi, 77km
Updated: Oct/06/2022 3:53pm
Mostly cloudy
Mostly cloudy
 Wind from W
Wind: W 5 mph , 7 km/h
Temperature: 63°F , 17°C
Dew Point: 54°F , 12°C
Humidity: 73%
Barometer: 30.16 inHg , 1021.3 hPa
Clouds: Mostly cloudy
Visibility: 9 miles , 14 km
Cloud details: Mostly cloudy 25000 ft
2022/10/06 22:53 KNUW 062253Z 27004KT 9SM BKN250 17/12 A3016 RMK AO2 SLP211 T01670122
KSHN - Shelton, Washington, USA
Distance from station: SW 50mi, 80km
Updated: Oct/06/2022 3:53pm
Clear
Clear
 Wind from varies
Wind: varies 3 mph , 6 km/h
Temperature: 73°F , 23°C
Dew Point: 55°F , 13°C
Humidity: 53%
Barometer: 30.08 inHg , 1018.6 hPa
Clouds: Clear
Visibility: 10 miles , 16 km
2022/10/06 22:53 KSHN 062253Z AUTO VRB03KT 10SM CLR 23/13 A3008 RMK AO2 SLP185 T02280133